Chesapeake, VA

4:32 AM EDT on August 22, 2017 (GMT -0400)
Chesapeake Regional

Weather History for KCPK - January, 2014

Change the Weather History Date:

Tuesday, January 14, 2014

  Actual Average (KSFQ) Record (KSFQ)
Temperature  
Mean Temperature 50 °F -  
Max Temperature 60 °F 48 °F 73 °F (2007)
Min Temperature 39 °F 28 °F 14 °F (1954)
Degree Days  
Heating Degree Days 16    
Moisture  
Dew Point 50 °F    
Average Humidity 92    
Maximum Humidity 100    
Minimum Humidity 72    
Precipitation  
Precipitation 0.32 in - - ()
Sea Level Pressure  
Sea Level Pressure 29.87 in    
Wind  
Wind Speed 5 mph (SSW)    
Max Wind Speed 16 mph    
Max Gust Speed 26 mph    
Visibility 8 miles    
Events Fog , Rain    
Averages and records for this station are not official NWS values.
T = Trace of Precipitation, MM = Missing Value Source: NWS Daily Summary

Daily Weather History Graph

Daily Weather History Graph

Search for Another Location

Airport or City:

Trip Planner

Search our weather history database for the weather conditions in past years. The results will help you decide how hot, cold, wet, or windy it might be!

Date:

Astronomy

Jan. 14, 2014 Rise Set
Actual Time 7:17 AM EST 5:12 PM EST
Civil Twilight 6:48 AM EST 5:40 PM EST
Nautical Twilight 6:16 AM EST 6:12 PM EST
Astronomical Twilight 5:45 AM EST 6:43 PM EST
Moon 4:14 PM EST (1/14) 5:50 AM EST (1/14)
Length of Visible Light 10h 51m
Length of Day
9h 54m
Waxing Gibbous, 98% of the Moon is Illuminated
Jan 14
Waxing Gibbous
Jan 15
Full
Jan 24
Last Quarter
Jan 30
New
Feb 6
First Quarter

Hourly Weather History & Observations

Time (EST) Temp. Dew Point Humidity Pressure Visibility Wind Dir Wind Speed Gust Speed Precip Events Conditions
12:15 AM 55.4 °F 46.4 °F 72% 29.98 in 10.0 mi South 5.8 mph - N/A   Mostly Cloudy
12:35 AM 55.4 °F 46.4 °F 72% 29.97 in 10.0 mi South 5.8 mph - N/A   Scattered Clouds
12:55 AM 55.4 °F 46.4 °F 72% 29.96 in 10.0 mi South 3.5 mph - N/A   Clear
1:15 AM 55.4 °F 46.4 °F 72% 29.95 in 10.0 mi Calm Calm - N/A   Mostly Cloudy
1:35 AM 55.4 °F 46.4 °F 72% 29.95 in 10.0 mi South 3.5 mph - N/A   Mostly Cloudy
1:55 AM 55.4 °F 46.4 °F 72% 29.94 in 10.0 mi South 4.6 mph - N/A   Mostly Cloudy
2:15 AM 57.2 °F 48.2 °F 72% 29.93 in 10.0 mi South 5.8 mph - N/A   Mostly Cloudy
2:35 AM 57.2 °F 48.2 °F 72% 29.92 in 10.0 mi South 6.9 mph - N/A   Mostly Cloudy
2:55 AM 57.2 °F 48.2 °F 72% 29.90 in 10.0 mi South 5.8 mph - N/A   Scattered Clouds
3:15 AM 57.2 °F 48.2 °F 72% 29.90 in 10.0 mi South 6.9 mph - N/A   Scattered Clouds
3:35 AM 57.2 °F 50.0 °F 77% 29.89 in 10.0 mi South 6.9 mph - N/A   Mostly Cloudy
3:55 AM 57.2 °F 50.0 °F 77% 29.87 in 10.0 mi SSE 6.9 mph - N/A   Mostly Cloudy
4:15 AM 57.2 °F 50.0 °F 77% 29.88 in 10.0 mi South 5.8 mph - N/A   Mostly Cloudy
4:35 AM 57.2 °F 51.8 °F 82% 29.88 in 10.0 mi South 6.9 mph - N/A Rain Light Rain
4:55 AM 57.2 °F 51.8 °F 82% 29.89 in 10.0 mi South 6.9 mph - N/A Rain Light Rain
5:15 AM 55.4 °F 51.8 °F 88% 29.89 in 10.0 mi South 8.1 mph - N/A   Light Drizzle
5:35 AM 55.4 °F 51.8 °F 88% 29.88 in 10.0 mi South 4.6 mph - N/A Rain Light Rain
5:55 AM 55.4 °F 51.8 °F 88% 29.88 in 10.0 mi South 5.8 mph - N/A   Light Drizzle
6:15 AM 55.4 °F 53.6 °F 94% 29.88 in 10.0 mi SSW 4.6 mph - N/A Rain Light Rain
6:35 AM 55.4 °F 53.6 °F 94% 29.87 in 10.0 mi South 4.6 mph - 0.02 in Rain Rain
6:55 AM 55.4 °F 53.6 °F 94% 29.85 in 10.0 mi South 3.5 mph - 0.01 in Rain Light Rain
7:15 AM 55.4 °F 53.6 °F 94% 29.85 in 10.0 mi South 4.6 mph - 0.02 in Rain Light Rain
7:35 AM 55.4 °F 53.6 °F 94% 29.85 in 10.0 mi South 3.5 mph - 0.02 in Rain Light Rain
7:55 AM 55.4 °F 53.6 °F 94% 29.83 in 10.0 mi Calm Calm - N/A Rain Light Rain
8:15 AM 53.6 °F 53.6 °F 100% 29.83 in 10.0 mi Calm Calm - N/A Rain Light Rain
8:35 AM 55.4 °F 53.6 °F 94% 29.83 in 10.0 mi SE 5.8 mph - N/A Rain Light Rain
8:55 AM 55.4 °F 53.6 °F 94% 29.84 in 10.0 mi South 3.5 mph - N/A Rain Light Rain
9:15 AM 55.4 °F 53.6 °F 94% 29.84 in 10.0 mi SSE 3.5 mph - N/A Rain Light Rain
9:35 AM 55.4 °F 53.6 °F 94% 29.84 in 10.0 mi South 5.8 mph - 0.01 in Rain Light Rain
9:55 AM 55.4 °F 53.6 °F 94% 29.84 in 10.0 mi SSE 5.8 mph - 0.01 in Rain Rain
10:15 AM 55.4 °F 53.6 °F 94% 29.83 in 10.0 mi South 6.9 mph - 0.02 in Rain Light Rain
10:35 AM 55.4 °F 55.4 °F 100% 29.81 in 10.0 mi South 6.9 mph - 0.05 in Rain Rain
10:55 AM 57.2 °F 55.4 °F 94% 29.78 in 10.0 mi SE 10.4 mph - 0.02 in Rain Rain
11:15 AM 57.2 °F 57.2 °F 100% 29.74 in 10.0 mi SSE 11.5 mph - 0.06 in Rain Rain
11:35 AM 57.2 °F 57.2 °F 100% 29.75 in 10.0 mi WSW 8.1 mph - 0.07 in Rain Light Rain
11:55 AM 57.2 °F 57.2 °F 100% 29.75 in 10.0 mi SSW 5.8 mph - 0.01 in Rain Light Rain
12:15 PM 59.0 °F 57.2 °F 94% 29.73 in 10.0 mi South 9.2 mph - 0.01 in Rain Light Rain
12:35 PM 59.0 °F 57.2 °F 94% 29.72 in 10.0 mi South 10.4 mph - 0.01 in Rain Rain
12:55 PM 60.8 °F 59.0 °F 94% 29.70 in 10.0 mi SSW 8.1 mph - N/A   Light Drizzle
1:15 PM 60.8 °F 59.0 °F 94% 29.71 in 10.0 mi SSW 11.5 mph - N/A   Overcast
1:35 PM 60.8 °F 59.0 °F 94% 29.70 in 10.0 mi SSW 11.5 mph - N/A   Light Drizzle
1:55 PM 60.8 °F 59.0 °F 94% 29.72 in 10.0 mi WSW 12.7 mph 16.1 mph N/A   Overcast
2:15 PM 53.6 °F 53.6 °F 100% 29.74 in 5.0 mi WNW 16.1 mph 20.7 mph 0.09 in Rain Rain
2:35 PM 53.6 °F 51.8 °F 94% 29.76 in 7.0 mi West 10.4 mph 16.1 mph 0.10 in Rain Rain
2:55 PM 53.6 °F 51.8 °F 94% 29.77 in 10.0 mi West 11.5 mph 17.3 mph N/A   Overcast
3:15 PM 51.8 °F 51.8 °F 100% 29.79 in 4.0 mi West 16.1 mph 26.5 mph N/A   Drizzle
3:35 PM 51.8 °F 51.8 °F 100% 29.80 in 7.0 mi West 11.5 mph - 0.03 in Rain Rain
3:55 PM 51.8 °F 51.8 °F 100% 29.79 in 10.0 mi WNW 8.1 mph - N/A Rain Rain
4:15 PM 51.8 °F 51.8 °F 100% 29.79 in 10.0 mi West 3.5 mph - N/A   Overcast
4:35 PM 51.8 °F 51.8 °F 100% 29.79 in 10.0 mi NW 3.5 mph - 0.01 in Rain Light Rain
4:55 PM 51.8 °F 50.0 °F 94% 29.83 in 10.0 mi West 5.8 mph - N/A   Mostly Cloudy
5:15 PM 51.8 °F 50.0 °F 94% 29.84 in 10.0 mi West 5.8 mph - N/A   Mostly Cloudy
5:35 PM 51.8 °F 50.0 °F 94% 29.86 in 10.0 mi WNW 6.9 mph - N/A   Overcast
5:55 PM 51.8 °F 50.0 °F 94% 29.88 in 10.0 mi WNW 9.2 mph - N/A   Overcast
6:15 PM 50.0 °F 48.2 °F 94% 29.90 in 10.0 mi NW 4.6 mph - N/A   Mostly Cloudy
6:35 PM 48.2 °F 48.2 °F 100% 29.91 in 10.0 mi Calm Calm - N/A   Clear
6:55 PM 46.4 °F 46.4 °F 100% 29.92 in 10.0 mi Calm Calm - N/A   Clear
7:15 PM 46.4 °F 46.4 °F 100% 29.93 in 10.0 mi Calm Calm - N/A   Clear
7:35 PM 46.4 °F 44.6 °F 93% 29.93 in 1.2 mi Calm Calm - N/A   Mostly Cloudy
7:55 PM 44.6 °F 44.6 °F 100% 29.93 in 0.5 mi Calm Calm - N/A Fog Fog
8:15 PM 44.6 °F 42.8 °F 93% 29.94 in 0.2 mi Calm Calm - N/A Fog Fog
8:35 PM 42.8 °F 42.8 °F 100% 29.95 in 0.8 mi Calm Calm - N/A   Overcast
8:55 PM 42.8 °F 42.8 °F 100% 29.95 in 0.2 mi Calm Calm - N/A Fog Fog
9:15 PM 41.0 °F 41.0 °F 100% 29.96 in 0.5 mi Calm Calm - N/A Fog Fog
9:35 PM 41.0 °F 41.0 °F 100% 29.96 in 0.2 mi Calm Calm - N/A Fog Fog
9:55 PM 39.2 °F 39.2 °F 100% 29.98 in 0.5 mi Calm Calm - N/A Fog Fog
10:15 PM 41.0 °F 39.2 °F 93% 29.98 in 0.2 mi Calm Calm - N/A Fog Fog
10:35 PM 39.2 °F 39.2 °F 100% 29.98 in 0.5 mi Calm Calm - N/A Fog Fog
10:55 PM 39.2 °F 39.2 °F 100% 29.98 in 0.5 mi Calm Calm - N/A Fog Fog
11:15 PM 39.2 °F 39.2 °F 100% 29.98 in 1.5 mi Calm Calm - N/A   Overcast
11:35 PM 39.2 °F 39.2 °F 100% 29.98 in 0.8 mi Calm Calm - N/A   Overcast
11:55 PM 39.2 °F 39.2 °F 100% 29.98 in 0.2 mi Calm Calm - N/A Fog Fog